createdAt,value
2022-11-22T00:00:07.987Z,0.05
2022-11-22T00:02:09.516Z,0.05
2022-11-22T00:04:10.982Z,0.03
2022-11-22T00:06:12.424Z,0.04
2022-11-22T00:08:13.993Z,0.04
2022-11-22T00:10:15.963Z,0.03
2022-11-22T00:12:17.583Z,0.03
2022-11-22T00:14:19.037Z,0.05
2022-11-22T00:16:20.468Z,0.05
2022-11-22T00:18:21.910Z,0.07
2022-11-22T00:20:23.406Z,0.09
2022-11-22T00:22:24.941Z,0.09
2022-11-22T00:24:26.357Z,0.11
2022-11-22T00:26:27.862Z,0.12
2022-11-22T00:28:29.332Z,0.11
2022-11-22T00:30:30.765Z,0.10
2022-11-22T00:32:32.327Z,0.11
2022-11-22T00:34:33.849Z,0.12
2022-11-22T00:36:35.327Z,0.14
2022-11-22T00:38:36.859Z,0.13
2022-11-22T00:40:38.288Z,0.14
2022-11-22T00:42:39.752Z,0.13
2022-11-22T00:44:41.191Z,0.14
2022-11-22T00:46:42.797Z,0.13
2022-11-22T00:48:44.292Z,0.14
2022-11-22T00:50:49.012Z,0.14
2022-11-22T00:52:50.466Z,0.11
2022-11-22T00:54:54.971Z,0.10
2022-11-22T00:56:56.745Z,0.12
2022-11-22T00:58:58.267Z,0.11
2022-11-22T01:00:59.787Z,0.12
2022-11-22T01:03:01.251Z,0.12
2022-11-22T01:05:03.313Z,0.14
2022-11-22T01:07:04.901Z,0.15
2022-11-22T01:09:06.411Z,0.16
2022-11-22T01:11:07.960Z,0.17
2022-11-22T01:13:10.057Z,0.18
2022-11-22T01:15:11.888Z,0.17
2022-11-22T01:17:13.449Z,0.17
2022-11-22T01:19:15.373Z,0.17
2022-11-22T01:21:16.809Z,0.18
2022-11-22T01:23:18.277Z,0.18
2022-11-22T01:25:19.767Z,0.20
2022-11-22T01:27:21.355Z,0.20
2022-11-22T01:29:22.810Z,0.21
2022-11-22T01:31:24.492Z,0.19
2022-11-22T01:33:26.049Z,0.20
2022-11-22T01:35:27.519Z,0.22
2022-11-22T01:37:28.950Z,0.23
2022-11-22T01:39:30.491Z,0.24
2022-11-22T01:41:32.091Z,0.25
2022-11-22T01:43:33.551Z,0.25
2022-11-22T01:45:41.251Z,0.26
2022-11-22T01:47:42.869Z,0.27
2022-11-22T01:50:06.532Z,0.28
2022-11-22T01:52:14.131Z,0.30
2022-11-22T01:54:20.765Z,0.31
2022-11-22T01:56:23.627Z,0.29
2022-11-22T01:58:27.504Z,0.30
2022-11-22T02:00:28.962Z,0.30
2022-11-22T02:02:30.712Z,0.32
2022-11-22T02:04:33.713Z,0.35
2022-11-22T02:07:04.446Z,0.36
2022-11-22T02:09:14.825Z,0.36
2022-11-22T02:11:18.407Z,0.36
2022-11-22T02:13:22.460Z,0.36
2022-11-22T02:15:23.902Z,0.36
2022-11-22T02:17:26.760Z,0.37
2022-11-22T02:19:41.739Z,0.39
2022-11-22T02:21:49.637Z,0.39
2022-11-22T02:24:00.733Z,0.40
2022-11-22T02:26:02.864Z,0.39
2022-11-22T02:28:05.223Z,0.39
2022-11-22T02:30:07.624Z,0.40
2022-11-22T02:32:09.080Z,0.38
2022-11-22T02:34:12.778Z,0.40
2022-11-22T02:36:14.251Z,0.42
2022-11-22T02:38:19.301Z,0.43
2022-11-22T02:40:22.115Z,0.44
2022-11-22T02:42:26.015Z,0.45
2022-11-22T02:44:27.726Z,0.48
2022-11-22T02:46:29.168Z,0.48
2022-11-22T02:48:30.637Z,0.46
2022-11-22T02:50:32.100Z,0.44
2022-11-22T02:52:33.623Z,0.46
2022-11-22T02:54:35.041Z,0.46
2022-11-22T02:56:36.494Z,0.47
2022-11-22T02:58:38.155Z,0.49
2022-11-22T03:00:39.748Z,0.48
2022-11-22T03:02:41.399Z,0.51
2022-11-22T03:04:42.817Z,0.52
2022-11-22T03:06:44.279Z,0.52
2022-11-22T03:08:53.201Z,0.54
2022-11-22T03:10:59.020Z,0.54
2022-11-22T03:13:00.499Z,0.54
2022-11-22T03:15:01.976Z,0.54
2022-11-22T03:17:03.450Z,0.56
2022-11-22T03:19:04.900Z,0.57
2022-11-22T03:21:09.519Z,0.57
2022-11-22T03:23:11.044Z,0.59
2022-11-22T03:25:12.498Z,0.61
2022-11-22T03:27:13.931Z,0.61
2022-11-22T03:29:16.977Z,0.63
2022-11-22T03:31:18.410Z,0.63
2022-11-22T03:33:19.880Z,0.64
2022-11-22T03:35:21.510Z,0.65
2022-11-22T03:37:23.016Z,0.66
2022-11-22T03:39:24.567Z,0.67
2022-11-22T03:41:26.056Z,0.70
2022-11-22T03:43:27.611Z,0.71
2022-11-22T03:45:29.622Z,0.73
2022-11-22T03:47:31.068Z,0.74
2022-11-22T03:49:32.803Z,0.75
2022-11-22T03:51:34.363Z,0.76
2022-11-22T03:53:35.860Z,0.77
2022-11-22T03:55:37.496Z,0.78
2022-11-22T03:57:38.954Z,0.78
2022-11-22T03:59:40.438Z,0.82
2022-11-22T04:01:41.928Z,0.81
2022-11-22T04:03:43.401Z,0.81
2022-11-22T04:05:45.660Z,0.82
2022-11-22T04:07:47.287Z,0.82
2022-11-22T04:09:48.810Z,0.85
2022-11-22T04:11:50.289Z,0.86
2022-11-22T04:14:10.121Z,0.85
2022-11-22T04:16:11.629Z,0.86
2022-11-22T04:18:13.957Z,0.86
2022-11-22T04:20:43.346Z,0.86
2022-11-22T04:22:44.802Z,0.86
2022-11-22T04:25:04.892Z,0.88
2022-11-22T04:27:06.405Z,0.88
2022-11-22T04:29:10.287Z,0.89
2022-11-22T04:31:30.759Z,0.90
2022-11-22T04:33:32.276Z,0.91
2022-11-22T04:35:33.785Z,0.91
2022-11-22T04:37:35.220Z,0.92
2022-11-22T04:39:36.690Z,0.95
2022-11-22T04:41:38.159Z,0.96
2022-11-22T04:43:58.178Z,0.95
2022-11-22T04:45:59.605Z,0.96
2022-11-22T04:48:01.127Z,0.97
2022-11-22T04:50:04.284Z,0.97
2022-11-22T04:52:24.514Z,0.98
2022-11-22T04:54:26.056Z,0.97
2022-11-22T04:56:27.511Z,0.98
2022-11-22T04:58:29.151Z,0.99
2022-11-22T05:00:31.906Z,0.99
2022-11-22T05:02:33.380Z,1.00
2022-11-22T05:04:34.863Z,0.99
2022-11-22T05:06:36.934Z,1.00
2022-11-22T05:08:38.368Z,1.00
2022-11-22T05:10:59.481Z,1.00
2022-11-22T05:13:00.918Z,1.00
2022-11-22T05:15:02.438Z,1.01
2022-11-22T05:17:03.948Z,1.02
2022-11-22T05:19:05.516Z,1.02
2022-11-22T05:21:12.785Z,1.04
2022-11-22T05:23:33.399Z,1.05
2022-11-22T05:25:34.848Z,1.06
2022-11-22T05:27:36.329Z,1.06
2022-11-22T05:29:37.780Z,1.04
2022-11-22T05:31:39.963Z,1.03
2022-11-22T05:33:43.145Z,1.04
2022-11-22T05:35:44.598Z,1.08
2022-11-22T05:37:46.063Z,1.07
2022-11-22T05:39:47.535Z,1.08
2022-11-22T05:41:55.952Z,1.07
2022-11-22T05:43:58.186Z,1.08
2022-11-22T05:46:11.343Z,1.10
2022-11-22T05:48:12.794Z,1.09
2022-11-22T05:50:14.247Z,1.10
2022-11-22T05:52:15.674Z,1.11
2022-11-22T05:54:17.214Z,1.11
2022-11-22T05:56:23.428Z,1.12
2022-11-22T05:58:24.883Z,1.14
2022-11-22T06:00:26.661Z,1.15
2022-11-22T06:02:28.169Z,1.14
2022-11-22T06:04:29.810Z,1.13
2022-11-22T06:06:31.339Z,1.13
2022-11-22T06:08:38.153Z,1.14
2022-11-22T06:10:39.662Z,1.15
2022-11-22T06:12:41.115Z,1.17
2022-11-22T06:14:43.651Z,1.16
2022-11-22T06:16:45.277Z,1.16
2022-11-22T06:18:46.915Z,1.17
2022-11-22T06:20:48.567Z,1.19
2022-11-22T06:22:50.004Z,1.21
2022-11-22T06:24:51.428Z,1.23
2022-11-22T06:26:52.884Z,1.25
2022-11-22T06:28:55.054Z,1.24
2022-11-22T06:31:04.559Z,1.25
2022-11-22T06:33:06.136Z,1.25
2022-11-22T06:35:07.934Z,1.25
2022-11-22T06:37:09.458Z,1.25
2022-11-22T06:39:10.964Z,1.26
2022-11-22T06:41:14.847Z,1.27
2022-11-22T06:43:16.282Z,1.27
2022-11-22T06:45:18.084Z,1.29
2022-11-22T06:47:19.577Z,1.31
2022-11-22T06:49:21.009Z,1.31
2022-11-22T06:51:28.584Z,1.32
2022-11-22T06:53:46.907Z,1.32
2022-11-22T06:55:50.932Z,1.33
2022-11-22T06:57:53.410Z,1.32
2022-11-22T06:59:54.929Z,1.34
2022-11-22T07:01:59.012Z,1.35
2022-11-22T07:04:05.138Z,1.36
2022-11-22T07:06:08.318Z,1.38
2022-11-22T07:08:13.785Z,1.37
2022-11-22T07:10:15.930Z,1.36
2022-11-22T07:12:17.366Z,1.39
2022-11-22T07:14:19.111Z,1.39
2022-11-22T07:16:21.826Z,1.39
2022-11-22T07:18:24.100Z,1.41
2022-11-22T07:20:25.584Z,1.42
2022-11-22T07:22:27.059Z,1.44
2022-11-22T07:24:28.772Z,1.45
2022-11-22T07:26:30.235Z,1.45
2022-11-22T07:28:31.881Z,1.47
2022-11-22T07:30:33.336Z,1.47
2022-11-22T07:32:34.827Z,1.50
2022-11-22T07:34:36.303Z,1.52
2022-11-22T07:36:37.831Z,1.54
2022-11-22T07:38:39.394Z,1.56
2022-11-22T07:40:40.829Z,1.56
2022-11-22T07:42:42.277Z,1.59
2022-11-22T07:44:43.704Z,1.60
2022-11-22T07:46:45.210Z,1.61
2022-11-22T07:48:48.317Z,1.65
2022-11-22T07:50:49.764Z,1.67
2022-11-22T07:52:58.342Z,1.67
2022-11-22T07:54:59.810Z,1.67
2022-11-22T07:57:01.237Z,1.69
2022-11-22T07:59:02.676Z,1.70
2022-11-22T08:01:09.404Z,1.72
2022-11-22T08:03:13.249Z,1.72
2022-11-22T08:05:19.105Z,1.75
2022-11-22T08:07:20.560Z,1.75
2022-11-22T08:09:21.988Z,1.75
2022-11-22T08:11:23.403Z,1.75
2022-11-22T08:13:25.146Z,1.78
2022-11-22T08:15:26.988Z,1.78
2022-11-22T08:17:28.393Z,1.80
2022-11-22T08:19:31.157Z,1.82
2022-11-22T08:21:32.719Z,1.85
2022-11-22T08:23:35.144Z,1.87
2022-11-22T08:25:36.625Z,1.88
2022-11-22T08:27:40.261Z,1.89
2022-11-22T08:29:41.665Z,1.89
2022-11-22T08:31:43.102Z,1.91
2022-11-22T08:33:44.666Z,1.93
2022-11-22T08:35:49.905Z,1.95
2022-11-22T08:37:55.533Z,1.96
2022-11-22T08:39:57.287Z,1.97
2022-11-22T08:41:58.878Z,1.98
2022-11-22T08:44:00.285Z,2.00
2022-11-22T08:46:02.251Z,2.02
2022-11-22T08:48:03.878Z,2.05
2022-11-22T08:50:05.907Z,2.07
2022-11-22T08:52:07.334Z,2.08
2022-11-22T08:54:08.722Z,2.10
2022-11-22T08:56:13.315Z,2.11
2022-11-22T08:58:14.900Z,2.14
2022-11-22T09:00:16.709Z,2.16
2022-11-22T09:02:18.136Z,2.16
2022-11-22T09:04:19.547Z,2.19
2022-11-22T09:08:47.244Z,2.23
2022-11-22T09:10:50.743Z,2.25
2022-11-22T09:12:52.167Z,2.25
2022-11-22T09:14:53.575Z,2.28
2022-11-22T09:16:55.064Z,2.30
2022-11-22T09:18:56.988Z,2.32
2022-11-22T09:21:03.394Z,2.33
2022-11-22T09:23:04.826Z,2.36
2022-11-22T09:25:06.592Z,2.38
2022-11-22T09:27:08.031Z,2.41
2022-11-22T09:29:09.470Z,2.44
2022-11-22T09:31:16.890Z,2.47
2022-11-22T09:33:18.645Z,2.50
2022-11-22T09:35:20.258Z,2.53
2022-11-22T09:37:21.661Z,2.53
2022-11-22T09:39:23.095Z,2.55
2022-11-22T09:41:55.729Z,2.58
2022-11-22T09:44:15.575Z,2.61
2022-11-22T09:46:40.941Z,2.63
2022-11-22T09:48:59.943Z,2.65
2022-11-22T09:51:17.218Z,2.67
2022-11-22T09:53:25.577Z,2.68
2022-11-22T09:55:39.541Z,2.71
2022-11-22T09:57:47.799Z,2.74
2022-11-22T09:59:58.861Z,2.76
2022-11-22T10:02:18.867Z,2.83
2022-11-22T10:04:37.578Z,2.91
2022-11-22T10:06:45.788Z,3.00
2022-11-22T10:08:59.302Z,3.08
2022-11-22T10:11:03.213Z,3.13
2022-11-22T10:13:29.332Z,3.18
2022-11-22T10:15:53.073Z,3.24
2022-11-22T10:17:59.185Z,3.30
2022-11-22T10:20:03.573Z,3.37
2022-11-22T10:22:12.799Z,3.44
2022-11-22T10:24:16.427Z,3.51
2022-11-22T10:26:26.563Z,3.62
2022-11-22T10:28:35.429Z,3.72
2022-11-22T10:30:39.513Z,3.80
2022-11-22T10:33:04.543Z,3.91
2022-11-22T10:35:23.717Z,4.03
2022-11-22T10:37:37.047Z,4.13
2022-11-22T10:40:00.006Z,4.33
2022-11-22T10:42:19.622Z,4.49
2022-11-22T10:44:35.658Z,4.76
2022-11-22T10:46:40.056Z,5.05
2022-11-22T10:48:47.565Z,5.37
2022-11-22T10:51:08.828Z,5.72
2022-11-22T10:53:24.514Z,6.08
2022-11-22T10:55:53.708Z,6.48
2022-11-22T10:58:15.915Z,6.78
2022-11-22T11:00:24.452Z,7.05
2022-11-22T11:02:47.519Z,7.32
2022-11-22T11:04:50.883Z,7.60
2022-11-22T11:07:11.859Z,7.97
2022-11-22T11:10:09.032Z,8.49
2022-11-22T11:11:46.003Z,8.67
2022-11-22T11:13:52.723Z,8.68
2022-11-22T11:15:57.688Z,8.77
2022-11-22T11:18:02.663Z,8.97
2022-11-22T11:20:13.945Z,8.99
2022-11-22T11:22:50.458Z,8.81
2022-11-22T11:24:47.058Z,8.45
2022-11-22T11:26:54.390Z,7.90
2022-11-22T11:29:17.735Z,7.52
2022-11-22T11:31:21.614Z,7.25
2022-11-22T11:33:31.534Z,7.08
2022-11-22T11:35:34.348Z,6.96
2022-11-22T11:37:39.073Z,6.90
2022-11-22T11:39:46.635Z,6.79
2022-11-22T11:41:48.404Z,6.76
2022-11-22T11:43:52.440Z,6.77
2022-11-22T11:45:53.916Z,6.80
2022-11-22T11:47:55.728Z,6.79
2022-11-22T11:49:57.140Z,6.74
2022-11-22T11:52:01.561Z,6.70
2022-11-22T11:54:11.609Z,6.66
2022-11-22T11:56:32.132Z,6.61
2022-11-22T11:58:33.632Z,6.58
2022-11-22T12:00:38.409Z,6.55
2022-11-22T12:02:46.360Z,6.51
2022-11-22T12:04:53.010Z,6.50
2022-11-22T12:07:16.186Z,6.49
2022-11-22T12:09:29.109Z,6.49
2022-11-22T12:11:42.762Z,6.45
2022-11-22T12:14:18.551Z,6.45
2022-11-22T12:16:28.808Z,6.43
2022-11-22T12:18:44.141Z,6.34
2022-11-22T12:21:14.784Z,6.32
2022-11-22T12:23:50.749Z,6.27
2022-11-22T12:25:56.478Z,6.25
2022-11-22T12:28:00.350Z,6.25
2022-11-22T12:30:01.902Z,6.27
2022-11-22T12:32:28.378Z,6.25
2022-11-22T12:34:35.426Z,6.22
2022-11-22T12:36:55.608Z,6.21
2022-11-22T12:39:01.889Z,6.19
2022-11-22T12:41:09.734Z,6.17
2022-11-22T12:43:23.416Z,6.16
2022-11-22T12:45:27.608Z,6.16
2022-11-22T12:47:35.559Z,6.17
2022-11-22T12:49:42.988Z,6.16
2022-11-22T12:51:50.887Z,6.15
2022-11-22T12:53:55.689Z,6.14
2022-11-22T12:56:35.341Z,6.13
2022-11-22T12:59:15.603Z,6.10
2022-11-22T13:01:24.986Z,6.10
2022-11-22T13:03:33.182Z,6.10
2022-11-22T13:05:48.507Z,6.09
2022-11-22T13:07:53.982Z,6.08
2022-11-22T13:10:03.032Z,6.08
2022-11-22T13:12:09.955Z,6.08
2022-11-22T13:14:20.984Z,6.07
2022-11-22T13:16:22.878Z,6.05
2022-11-22T13:18:36.353Z,6.00
2022-11-22T13:20:45.084Z,6.02
2022-11-22T13:23:12.683Z,6.02
2022-11-22T13:25:45.469Z,6.05
2022-11-22T13:27:50.345Z,6.06
2022-11-22T13:29:56.427Z,6.07
2022-11-22T13:32:15.437Z,6.08
2022-11-22T13:34:26.393Z,6.07
2022-11-22T13:36:27.794Z,6.07
2022-11-22T13:38:29.364Z,6.07
2022-11-22T13:40:42.469Z,6.09
2022-11-22T13:42:43.984Z,6.09
2022-11-22T13:44:57.471Z,6.09
2022-11-22T13:47:12.190Z,6.07
2022-11-22T13:49:37.410Z,6.05
2022-11-22T13:51:57.637Z,5.99
2022-11-22T13:54:33.194Z,5.95
2022-11-22T13:56:40.727Z,5.89
2022-11-22T13:58:50.981Z,5.89
2022-11-22T14:00:57.364Z,5.89
2022-11-22T14:03:21.115Z,5.88
2022-11-22T14:05:40.979Z,5.87
2022-11-22T14:07:44.792Z,5.86
2022-11-22T14:09:52.382Z,5.84
2022-11-22T14:11:56.750Z,5.81
2022-11-22T14:14:01.129Z,5.79
2022-11-22T14:16:20.945Z,5.77
2022-11-22T14:18:43.348Z,5.74
2022-11-22T14:21:02.216Z,5.71
2022-11-22T14:23:24.752Z,5.66
2022-11-22T14:25:43.727Z,5.63
2022-11-22T14:28:08.327Z,5.60
2022-11-22T14:30:19.769Z,5.57
2022-11-22T14:32:23.758Z,5.57
2022-11-22T14:34:27.917Z,5.57
2022-11-22T14:36:29.439Z,5.56
2022-11-22T14:38:35.900Z,5.56
2022-11-22T14:40:39.683Z,5.55
2022-11-22T14:42:43.435Z,5.54
2022-11-22T14:44:46.755Z,5.52
2022-11-22T14:47:17.782Z,5.49
2022-11-22T14:49:48.347Z,5.47
2022-11-22T14:51:55.336Z,5.47
2022-11-22T14:54:00.690Z,5.46
2022-11-22T14:56:12.354Z,5.46
2022-11-22T14:58:20.441Z,5.45
2022-11-22T15:00:23.980Z,5.44
2022-11-22T15:03:00.703Z,5.43
2022-11-22T15:09:11.391Z,5.40
2022-11-22T15:09:12.523Z,5.42
2022-11-22T15:10:33.843Z,5.39
2022-11-22T15:12:47.268Z,5.39
2022-11-22T15:57:44.937Z,5.15
2022-11-22T15:59:49.516Z,5.14
2022-11-22T16:01:53.991Z,5.14
2022-11-22T16:03:57.989Z,5.13
2022-11-22T16:06:08.156Z,5.14
2022-11-22T16:08:15.417Z,5.11
2022-11-22T16:10:24.449Z,5.11
2022-11-22T16:12:36.102Z,5.11
2022-11-22T16:14:47.821Z,5.10
2022-11-22T16:16:49.303Z,5.09
2022-11-22T16:18:53.083Z,5.09
2022-11-22T16:21:18.499Z,5.08
2022-11-22T16:23:25.943Z,5.08
2022-11-22T16:25:33.656Z,5.05
2022-11-22T16:27:35.377Z,5.04
2022-11-22T16:29:37.629Z,5.06
2022-11-22T16:31:40.062Z,5.04
2022-11-22T16:33:41.580Z,5.03
2022-11-22T16:35:43.010Z,5.02
2022-11-22T16:37:48.160Z,5.02
2022-11-22T16:39:49.845Z,5.00
2022-11-22T16:41:51.319Z,5.00
2022-11-22T16:44:00.188Z,5.01
2022-11-22T16:46:02.113Z,4.97
2022-11-22T16:48:35.086Z,4.96
2022-11-22T16:50:38.929Z,4.94
2022-11-22T16:52:42.065Z,4.94
2022-11-22T16:54:43.709Z,4.95
2022-11-22T16:56:46.088Z,4.93
2022-11-22T16:58:48.748Z,4.94
2022-11-22T17:00:51.043Z,4.94
2022-11-22T17:02:52.468Z,4.94
2022-11-22T17:04:53.927Z,4.94
2022-11-22T17:06:55.346Z,4.94
2022-11-22T17:08:59.014Z,4.92
2022-11-22T17:11:00.461Z,4.90
2022-11-22T17:13:01.949Z,4.89
2022-11-22T17:15:03.785Z,4.87
2022-11-22T17:17:05.265Z,4.87
2022-11-22T17:19:14.495Z,4.87
2022-11-22T17:21:37.476Z,4.89
2022-11-22T17:23:39.708Z,4.86
2022-11-22T17:25:41.254Z,4.84
2022-11-22T17:27:42.674Z,4.83
2022-11-22T17:29:51.486Z,4.82
2022-11-22T17:31:53.048Z,4.80
2022-11-22T17:33:56.924Z,4.78
2022-11-22T17:35:58.381Z,4.74
2022-11-22T17:37:59.866Z,4.71
2022-11-22T17:40:01.436Z,4.65
2022-11-22T17:42:02.897Z,4.60
2022-11-22T17:44:05.240Z,4.57
2022-11-22T17:46:06.715Z,4.52
2022-11-22T17:48:11.830Z,4.47
2022-11-22T17:50:13.758Z,4.45
2022-11-22T17:52:15.185Z,4.39
2022-11-22T17:54:16.622Z,4.37
2022-11-22T17:56:18.589Z,4.36
2022-11-22T17:58:20.020Z,4.35
2022-11-22T18:00:25.571Z,4.33
2022-11-22T18:02:31.250Z,4.31
2022-11-22T18:04:32.868Z,4.29
2022-11-22T18:06:34.723Z,4.28
2022-11-22T18:08:36.672Z,4.27
2022-11-22T18:10:38.380Z,4.27
2022-11-22T18:12:42.453Z,4.26
2022-11-22T18:14:48.632Z,4.24
2022-11-22T18:16:50.081Z,4.25
2022-11-22T18:18:58.915Z,4.24
2022-11-22T18:21:00.540Z,4.25
2022-11-22T18:23:01.960Z,4.23
2022-11-22T18:25:05.194Z,4.25
2022-11-22T18:27:06.705Z,4.25
2022-11-22T18:31:50.735Z,4.19
2022-11-22T18:33:54.102Z,4.18
2022-11-22T18:36:06.754Z,4.19
2022-11-22T18:38:08.202Z,4.19
2022-11-22T18:40:10.219Z,4.16
2022-11-22T18:42:14.332Z,4.16
2022-11-22T18:44:15.803Z,4.15
2022-11-22T18:46:17.243Z,4.14
2022-11-22T18:48:18.742Z,4.15
2022-11-22T18:50:20.182Z,4.14
2022-11-22T18:52:23.324Z,4.13
2022-11-22T18:54:24.887Z,4.10
2022-11-22T18:56:26.882Z,4.12
2022-11-22T18:58:32.135Z,4.12
2022-11-22T19:00:36.124Z,4.09
2022-11-22T19:02:37.587Z,4.12
2022-11-22T19:04:39.419Z,4.10
2022-11-22T19:06:41.966Z,4.09
2022-11-22T19:08:45.584Z,4.09
2022-11-22T19:10:56.788Z,4.10
2022-11-22T19:12:58.219Z,4.08
2022-11-22T19:14:59.854Z,4.07
2022-11-22T19:17:01.374Z,4.06
2022-11-22T19:19:02.999Z,4.06
2022-11-22T19:21:05.863Z,4.06
2022-11-22T19:23:07.314Z,4.05
2022-11-22T19:25:08.974Z,4.04
2022-11-22T19:27:10.714Z,4.03
2022-11-22T19:29:12.147Z,4.04
2022-11-22T19:31:18.750Z,4.01
2022-11-22T19:33:22.936Z,4.01
2022-11-22T19:35:24.369Z,4.00
2022-11-22T19:37:25.805Z,3.99
2022-11-22T19:39:27.260Z,3.98
2022-11-22T19:41:28.846Z,3.97
2022-11-22T19:43:30.299Z,3.98
2022-11-22T19:45:31.713Z,3.97
2022-11-22T19:47:33.264Z,3.94
2022-11-22T19:49:34.750Z,3.94
2022-11-22T19:51:36.958Z,3.95
2022-11-22T19:53:39.299Z,3.93
2022-11-22T19:55:45.312Z,3.94
2022-11-22T19:57:47.176Z,3.93
2022-11-22T19:59:49.099Z,3.91
2022-11-22T20:01:50.529Z,3.92
2022-11-22T20:03:54.227Z,3.92
2022-11-22T20:05:59.596Z,3.92
2022-11-22T20:08:01.033Z,3.91
2022-11-22T20:10:04.168Z,3.91
2022-11-22T20:12:05.658Z,3.90
2022-11-22T20:14:07.780Z,3.91
2022-11-22T20:16:15.784Z,3.93
2022-11-22T20:18:17.237Z,3.91
2022-11-22T20:20:19.010Z,3.93
2022-11-22T20:22:20.472Z,3.93
2022-11-22T20:24:21.924Z,3.94
2022-11-22T20:26:25.127Z,3.94
2022-11-22T20:28:26.558Z,3.97
2022-11-22T20:30:28.275Z,3.97
2022-11-22T20:32:29.744Z,3.97
2022-11-22T20:34:33.652Z,3.98
2022-11-22T20:36:35.812Z,3.99
2022-11-22T20:38:39.022Z,3.98
2022-11-22T20:40:40.453Z,3.99
2022-11-22T20:42:42.134Z,4.00
2022-11-22T20:44:43.751Z,4.01
2022-11-22T20:46:45.385Z,4.02
2022-11-22T20:48:48.157Z,4.03
2022-11-22T20:50:52.181Z,4.04
2022-11-22T20:52:53.674Z,4.04
2022-11-22T20:54:57.105Z,4.04
2022-11-22T20:57:00.594Z,4.05
2022-11-22T20:59:02.092Z,4.07
2022-11-22T21:01:08.885Z,4.09
2022-11-22T21:03:11.805Z,4.09
2022-11-22T21:05:13.392Z,4.11
2022-11-22T21:07:14.865Z,4.12
2022-11-22T21:09:16.377Z,4.12
2022-11-22T21:11:29.273Z,4.15
2022-11-22T21:13:31.236Z,4.15
2022-11-22T21:15:32.698Z,4.17
2022-11-22T21:17:46.007Z,4.18
2022-11-22T21:19:51.886Z,4.19
2022-11-22T21:21:53.325Z,4.20
2022-11-22T21:23:56.434Z,4.21
2022-11-22T21:25:58.199Z,4.22
2022-11-22T21:27:59.619Z,4.22
2022-11-22T21:30:01.071Z,4.22
2022-11-22T21:32:02.572Z,4.23
2022-11-22T21:34:04.042Z,4.23
2022-11-22T21:36:07.112Z,4.23
2022-11-22T21:38:08.549Z,4.23
2022-11-22T21:40:10.731Z,4.25
2022-11-22T21:42:12.161Z,4.24
2022-11-22T21:44:13.989Z,4.26
2022-11-22T21:46:15.811Z,4.26
2022-11-22T21:48:18.395Z,4.27
2022-11-22T21:50:19.954Z,4.28
2022-11-22T21:52:21.388Z,4.29
2022-11-22T21:54:22.866Z,4.29
2022-11-22T21:56:24.782Z,4.30
2022-11-22T21:58:26.348Z,4.30
2022-11-22T22:00:28.124Z,4.29
2022-11-22T22:02:30.648Z,4.29
2022-11-22T22:04:32.088Z,4.29
2022-11-22T22:06:33.571Z,4.29
2022-11-22T22:08:35.317Z,4.31
2022-11-22T22:10:36.840Z,4.32
2022-11-22T22:12:39.554Z,4.33
2022-11-22T22:14:41.008Z,4.33
2022-11-22T22:16:42.563Z,4.35
2022-11-22T22:18:44.962Z,4.36
2022-11-22T22:20:46.396Z,4.37
2022-11-22T22:22:48.777Z,4.40
2022-11-22T22:24:50.246Z,4.40
2022-11-22T22:26:51.710Z,4.44
2022-11-22T22:28:53.389Z,4.46
2022-11-22T22:31:22.670Z,4.47
2022-11-22T22:33:24.224Z,4.48
2022-11-22T22:35:25.692Z,4.50
2022-11-22T22:37:27.277Z,4.52
2022-11-22T22:39:29.246Z,4.55
2022-11-22T22:41:31.295Z,4.56
2022-11-22T22:43:35.810Z,4.58
2022-11-22T22:45:37.285Z,4.60
2022-11-22T22:47:38.705Z,4.64
2022-11-22T22:49:40.157Z,4.65
2022-11-22T22:51:41.650Z,4.68
2022-11-22T22:53:44.314Z,4.70
2022-11-22T22:55:54.127Z,4.73
2022-11-22T22:57:57.459Z,4.74
2022-11-22T22:59:58.987Z,4.77
2022-11-22T23:02:00.497Z,4.79
2022-11-22T23:04:02.543Z,4.79
2022-11-22T23:06:09.079Z,4.83
2022-11-22T23:08:10.872Z,4.84
2022-11-22T23:10:12.364Z,4.86
2022-11-22T23:12:13.850Z,4.88
2022-11-22T23:14:18.638Z,4.90
2022-11-22T23:16:20.112Z,4.91
2022-11-22T23:18:21.555Z,4.92
2022-11-22T23:20:24.988Z,4.93
2022-11-22T23:22:26.452Z,4.95
2022-11-22T23:24:32.688Z,4.99
2022-11-22T23:26:34.424Z,5.00
2022-11-22T23:28:36.499Z,5.01
2022-11-22T23:30:37.923Z,5.02
2022-11-22T23:32:39.371Z,5.03
2022-11-22T23:34:40.807Z,5.05
2022-11-22T23:36:42.272Z,5.05
2022-11-22T23:38:44.107Z,5.08
2022-11-22T23:40:52.791Z,5.10
2022-11-22T23:42:58.192Z,5.12
2022-11-22T23:44:59.704Z,5.13
2022-11-22T23:47:01.144Z,5.15
2022-11-22T23:49:03.687Z,5.17
2022-11-22T23:51:05.257Z,5.18
2022-11-22T23:53:06.743Z,5.19
2022-11-22T23:55:08.231Z,5.19
2022-11-22T23:57:09.665Z,5.20
2022-11-22T23:59:11.115Z,5.20
